»·PEaware :: N175EU KLGB-KAPV

N175EU :: KLGB-KAPV

FLIGHT INFORMATION

Flight Status: Arrived
Operator: Privately registered:
United States
More flights under this callsign
Pilot: Anonymous 16342 (16342)
Aircraft: BEECH AIRCRAFT SUPER KING AIR COMMUTER
(BE20)
More flights by this aircraft type
Origin: KLGB Long Beach
United States
Destination: KAPV Apple Valley
United States
More flights between these airports :: More routes between these airports
Route: +SLI V8 PDZ V442 APLES
File this flight plan on PilotEdge
Remarks:
Altitude:
(Current/Filed)
9,000ft
Speed:
(Current/Filed)
220kts
Departed: 14-Aug-18 07:29 AM
Arrived: 14-Aug-18 08:00 AM
Distance/Time
Traveled:
66nm/0:31
Distance/Time
To Go:
Arrived

Flight Plot

Page will automatically refresh every two minutes.

Flight plan parsing failed; only flown route is shown


Map Options




Map Legend


Flown Route
Filed Route
Departure Airport
Arrival Airport
Navaid (VOR, NDB)
Fix

Horizontal Profiles

Position Reports

Time Latitude Longitude Heading Altitude Ground
Speed
14-Aug-18 07:11 33.821310 -118.144938 268 64ft 0kts
14-Aug-18 07:12 33.821310 -118.144938 268 64ft 0kts
14-Aug-18 07:13 33.821310 -118.144939 268 64ft 0kts
14-Aug-18 07:14 33.821310 -118.144941 268 64ft 0kts
14-Aug-18 07:15 33.821310 -118.144942 268 64ft 0kts
14-Aug-18 07:16 33.821310 -118.144943 268 64ft 0kts
14-Aug-18 07:17 33.821310 -118.144945 268 64ft 0kts
14-Aug-18 07:18 33.821304 -118.144986 251 64ft 1kts
14-Aug-18 07:19 33.820099 -118.145925 257 64ft 8kts
14-Aug-18 07:20 33.820064 -118.146076 258 64ft 0kts
14-Aug-18 07:21 33.820064 -118.146078 258 64ft 0kts
14-Aug-18 07:22 33.819575 -118.146978 180 64ft 11kts
14-Aug-18 07:23 33.815037 -118.146074 137 64ft 19kts
14-Aug-18 07:24 33.810893 -118.141243 135 64ft 27kts
14-Aug-18 07:25 33.807449 -118.137708 223 64ft 0kts
14-Aug-18 07:26 33.807448 -118.137708 223 64ft 0kts
14-Aug-18 07:27 33.807448 -118.137709 223 64ft 0kts
14-Aug-18 07:28 33.807447 -118.137710 223 64ft 0kts
14-Aug-18 07:29 33.807446 -118.137711 223 64ft 0kts
14-Aug-18 07:30 33.817250 -118.151135 313 216ft 140kts
14-Aug-18 07:31 33.826584 -118.186395 219 2534ft 131kts
14-Aug-18 07:32 33.792383 -118.212847 199 4002ft 166kts
14-Aug-18 07:33 33.752475 -118.179789 103 3994ft 197kts
14-Aug-18 07:34 33.770897 -118.120477 69 4001ft 193kts
14-Aug-18 07:35 33.783364 -118.056229 79 3998ft 198kts
14-Aug-18 07:36 33.799339 -117.992285 72 4047ft 205kts
14-Aug-18 07:37 33.815398 -117.931837 72 6021ft 186kts
14-Aug-18 07:38 33.831277 -117.870596 72 7983ft 185kts
14-Aug-18 07:39 33.846828 -117.810077 73 9005ft 206kts
14-Aug-18 07:40 33.864443 -117.739351 73 8999ft 226kts
14-Aug-18 07:41 33.883228 -117.666889 73 9005ft 227kts
14-Aug-18 07:42 33.902212 -117.593408 73 8999ft 230kts
14-Aug-18 07:43 33.928251 -117.524751 39 9009ft 230kts
14-Aug-18 07:44 33.986362 -117.488135 26 9002ft 234kts
14-Aug-18 07:45 34.045773 -117.453490 27 9000ft 235kts
14-Aug-18 07:46 34.103858 -117.418728 27 9013ft 231kts
14-Aug-18 07:47 34.162739 -117.383271 27 9001ft 234kts
14-Aug-18 07:48 34.220558 -117.348424 27 9029ft 231kts
14-Aug-18 07:49 34.277733 -117.313861 27 9034ft 220kts
14-Aug-18 07:50 34.332113 -117.281004 27 9015ft 211kts
14-Aug-18 07:51 34.386014 -117.252091 16 9025ft 209kts
14-Aug-18 07:52 34.443465 -117.233531 16 8793ft 219kts
14-Aug-18 07:53 34.504996 -117.211747 17 7796ft 235kts
14-Aug-18 07:54 34.569866 -117.210065 356 6817ft 235kts
14-Aug-18 07:55 34.630341 -117.200462 12 5800ft 203kts
14-Aug-18 07:56 34.681080 -117.186816 23 4849ft 153kts
14-Aug-18 07:57 34.672637 -117.157669 173 4072ft 129kts
14-Aug-18 07:58 34.635747 -117.165620 195 4054ft 137kts
14-Aug-18 07:59 34.597976 -117.178791 196 3482ft 142kts
14-Aug-18 08:00 34.571435 -117.188199 195 3066ft 56kts
14-Aug-18 08:01 34.571219 -117.190345 358 3066ft 0kts
14-Aug-18 08:02 34.571221 -117.190345 358 3066ft 0kts
14-Aug-18 08:03 34.571223 -117.190345 358 3066ft 0kts
14-Aug-18 08:04 34.571225 -117.190345 358 3066ft 0kts
14-Aug-18 08:05 34.571228 -117.190345 358 3066ft 0kts
14-Aug-18 08:06 34.571230 -117.190345 358 3066ft 0kts
14-Aug-18 08:07 34.571232 -117.190346 358 3066ft 0kts
14-Aug-18 08:08 34.571235 -117.190346 358 3066ft 0kts

Navigation Log

Ident Type
Flight plan parsing failed, navigation log unavailable